Time;durP1;ratioP1;P1;durP2;ratioP2;P2;SDS_P1;SDS_P2;PMS_P1;PMS_P2;Temp;Humidity;BMP_temperature;BMP_pressure;BME280_temperature;BME280_humidity;BME280_pressure;Samples;Min_cycle;Max_cycle;Signal;HPM_P1;HPM_P2
2022/07/22 00:30:10;;;;;;;5.82;4.18;;;;;;;;;;5130176;27;20915;-72
2022/07/22 00:32:37;;;;;;;5.55;4.00;;;;;;;;;;5119475;28;20393;-72
2022/07/22 00:35:03;;;;;;;7.00;4.50;;;;;;;;;;5113884;28;20024;-72
2022/07/22 00:37:29;;;;;;;7.40;4.43;;;;;;;;;;5118026;28;20085;-73
2022/07/22 00:39:55;;;;;;;6.40;4.10;;;;;;;;;;5117603;27;20039;-72
2022/07/22 00:42:21;;;;;;;10.25;4.25;;;;;;;;;;5110306;28;20016;-71
2022/07/22 00:44:48;;;;;;;5.15;3.90;;;;;;;;;;5109269;28;20028;-72
2022/07/22 00:47:14;;;;;;;7.85;4.03;;;;;;;;;;5110069;28;20477;-71
2022/07/22 00:49:40;;;;;;;7.00;4.05;;;;;;;;;;5110014;28;20027;-71
2022/07/22 00:52:06;;;;;;;8.63;3.70;;;;;;;;;;5108497;28;20043;-71
2022/07/22 00:54:33;;;;;;;10.70;4.32;;;;;;;;;;5110264;28;20066;-72
2022/07/22 00:56:59;;;;;;;4.80;4.03;;;;;;;;;;5108878;28;20036;-72
2022/07/22 00:59:25;;;;;;;7.32;3.90;;;;;;;;;;5109935;28;20051;-72
2022/07/22 01:01:51;;;;;;;6.82;4.43;;;;;;;;;;5110382;28;20024;-71
2022/07/22 01:04:18;;;;;;;6.90;3.88;;;;;;;;;;5109814;28;20486;-72
2022/07/22 01:06:44;;;;;;;9.75;4.20;;;;;;;;;;5108500;28;20023;-72
2022/07/22 01:09:11;;;;;;;8.02;3.95;;;;;;;;;;5109840;28;20106;-72
2022/07/22 01:11:37;;;;;;;6.15;4.18;;;;;;;;;;5109840;28;20059;-72
2022/07/22 01:14:04;;;;;;;6.63;4.45;;;;;;;;;;5109913;28;20105;-71
2022/07/22 01:16:30;;;;;;;5.00;4.13;;;;;;;;;;5109659;28;20450;-72
2022/07/22 01:18:56;;;;;;;8.43;4.43;;;;;;;;;;5109572;28;20032;-72
2022/07/22 01:21:22;;;;;;;7.85;4.50;;;;;;;;;;5109418;28;20524;-72
2022/07/22 01:23:48;;;;;;;5.43;4.30;;;;;;;;;;5109689;28;20034;-72
2022/07/22 01:26:15;;;;;;;6.90;4.40;;;;;;;;;;5109410;28;20045;-72
2022/07/22 01:28:41;;;;;;;6.85;3.80;;;;;;;;;;5109427;28;20047;-72
2022/07/22 01:31:08;;;;;;;5.90;4.10;;;;;;;;;;5095951;28;20016;-72
2022/07/22 01:33:34;;;;;;;5.22;3.72;;;;;;;;;;5094432;28;20111;-71
2022/07/22 01:36:01;;;;;;;7.45;3.85;;;;;;;;;;5095645;28;20496;-72
2022/07/22 01:38:27;;;;;;;5.90;3.72;;;;;;;;;;5095673;28;20040;-72
2022/07/22 01:40:53;;;;;;;4.70;3.88;;;;;;;;;;5095582;28;20024;-71
2022/07/22 01:43:20;;;;;;;7.10;3.97;;;;;;;;;;5095678;28;20032;-72
2022/07/22 01:45:47;;;;;;;5.30;3.78;;;;;;;;;;5094386;28;20036;-73
2022/07/22 01:48:14;;;;;;;5.95;4.38;;;;;;;;;;5095547;28;20023;-72
2022/07/22 01:50:40;;;;;;;11.85;3.83;;;;;;;;;;5095216;28;20020;-71
2022/07/22 01:53:06;;;;;;;6.07;4.35;;;;;;;;;;5095411;28;20039;-72
2022/07/22 01:55:32;;;;;;;9.10;4.32;;;;;;;;;;5095322;28;20028;-72
2022/07/22 01:57:59;;;;;;;4.60;3.97;;;;;;;;;;5095484;28;20261;-72
2022/07/22 02:00:25;;;;;;;8.00;3.95;;;;;;;;;;5095258;28;20119;-72
2022/07/22 02:02:51;;;;;;;5.32;3.90;;;;;;;;;;5094098;28;20066;-72
2022/07/22 02:05:17;;;;;;;5.60;3.85;;;;;;;;;;5095282;28;20519;-71
2022/07/22 02:07:44;;;;;;;6.38;3.90;;;;;;;;;;5095020;28;20024;-72
2022/07/22 02:10:10;;;;;;;7.22;4.28;;;;;;;;;;5093852;28;20022;-72
2022/07/22 02:12:36;;;;;;;7.10;4.18;;;;;;;;;;5095178;28;20469;-72
2022/07/22 02:15:02;;;;;;;5.47;3.95;;;;;;;;;;5095076;28;20031;-72
2022/07/22 02:17:28;;;;;;;5.10;3.70;;;;;;;;;;5095294;28;20076;-71
2022/07/22 02:19:55;;;;;;;5.18;4.00;;;;;;;;;;5094808;28;20082;-71
2022/07/22 02:22:21;;;;;;;7.45;3.65;;;;;;;;;;5094727;28;20385;-71
2022/07/22 02:24:47;;;;;;;5.50;3.78;;;;;;;;;;5094896;28;20024;-72
2022/07/22 02:27:13;;;;;;;5.95;3.95;;;;;;;;;;5094728;28;20097;-71
2022/07/22 02:29:39;;;;;;;6.82;3.85;;;;;;;;;;5094387;28;20052;-72
2022/07/22 02:32:05;;;;;;;9.77;4.07;;;;;;;;;;5093569;28;20034;-72
2022/07/22 02:34:31;;;;;;;8.88;4.03;;;;;;;;;;5094595;28;20027;-71
2022/07/22 02:36:58;;;;;;;7.72;3.83;;;;;;;;;;5094374;28;20016;-72
2022/07/22 02:39:24;;;;;;;6.28;3.78;;;;;;;;;;5094799;28;20044;-72
2022/07/22 02:41:50;;;;;;;6.93;4.53;;;;;;;;;;5093456;28;20432;-73
2022/07/22 02:44:16;;;;;;;6.70;4.40;;;;;;;;;;5094472;28;20024;-72
2022/07/22 02:46:42;;;;;;;5.72;3.90;;;;;;;;;;5094369;28;20028;-73
2022/07/22 02:49:08;;;;;;;6.45;4.20;;;;;;;;;;5094460;28;20470;-73
2022/07/22 02:51:34;;;;;;;5.70;3.78;;;;;;;;;;5094198;28;20020;-72
2022/07/22 02:54:00;;;;;;;5.65;4.20;;;;;;;;;;5092907;28;20039;-72
2022/07/22 02:56:26;;;;;;;5.97;4.20;;;;;;;;;;5094488;28;20034;-73
2022/07/22 02:58:53;;;;;;;7.68;4.47;;;;;;;;;;5094007;28;20036;-73
2022/07/22 03:01:20;;;;;;;8.63;4.43;;;;;;;;;;5092773;28;20567;-73
2022/07/22 03:03:46;;;;;;;9.32;4.18;;;;;;;;;;5094330;28;20035;-73
2022/07/22 03:06:12;;;;;;;7.32;3.83;;;;;;;;;;5093938;28;20083;-72
2022/07/22 03:08:38;;;;;;;6.65;4.32;;;;;;;;;;5094074;28;20028;-72
2022/07/22 03:11:05;;;;;;;5.00;4.15;;;;;;;;;;5092699;28;20062;-72
2022/07/22 03:13:32;;;;;;;7.43;4.45;;;;;;;;;;5092746;28;20428;-72
2022/07/22 03:15:58;;;;;;;7.70;4.40;;;;;;;;;;5093665;28;20523;-72
2022/07/22 03:18:24;;;;;;;7.22;4.25;;;;;;;;;;5093811;28;20046;-72
2022/07/22 03:20:50;;;;;;;13.63;5.25;;;;;;;;;;5093661;28;20025;-72
2022/07/22 03:23:16;;;;;;;12.38;4.78;;;;;;;;;;5093688;28;20020;-72
2022/07/22 03:25:42;;;;;;;5.40;4.03;;;;;;;;;;5093608;28;20409;-71
2022/07/22 03:28:08;;;;;;;6.28;4.28;;;;;;;;;;5093513;28;20040;-72
2022/07/22 03:30:34;;;;;;;5.40;4.28;;;;;;;;;;5093703;28;20024;-72
2022/07/22 03:33:01;;;;;;;6.28;4.50;;;;;;;;;;5093873;28;20028;-72
2022/07/22 03:35:27;;;;;;;5.65;4.53;;;;;;;;;;5093474;28;20023;-72
2022/07/22 03:37:53;;;;;;;6.68;4.28;;;;;;;;;;5091912;28;20418;-72
2022/07/22 03:40:19;;;;;;;6.45;4.20;;;;;;;;;;5092144;28;20032;-71
2022/07/22 03:42:45;;;;;;;5.20;4.10;;;;;;;;;;5093414;28;20024;-72
2022/07/22 03:45:11;;;;;;;5.30;3.70;;;;;;;;;;5091944;28;20032;-72
2022/07/22 03:47:37;;;;;;;11.48;4.30;;;;;;;;;;5093346;28;20082;-72
2022/07/22 03:50:04;;;;;;;5.93;4.00;;;;;;;;;;5093616;28;20382;-72
2022/07/22 03:52:30;;;;;;;4.75;4.22;;;;;;;;;;5092875;28;20016;-72
2022/07/22 03:54:56;;;;;;;4.63;4.15;;;;;;;;;;5093470;28;20028;-72
2022/07/22 03:57:22;;;;;;;8.50;4.22;;;;;;;;;;5092957;28;20418;-72
2022/07/22 03:59:48;;;;;;;8.48;4.20;;;;;;;;;;5093123;28;20028;-72
2022/07/22 04:02:14;;;;;;;8.05;3.90;;;;;;;;;;5093197;28;20012;-72
2022/07/22 04:04:41;;;;;;;6.35;3.75;;;;;;;;;;5093241;28;20439;-71
2022/07/22 04:07:07;;;;;;;7.32;4.30;;;;;;;;;;5092903;28;20069;-72
2022/07/22 04:09:33;;;;;;;8.02;4.60;;;;;;;;;;5092966;28;20478;-72
2022/07/22 04:11:59;;;;;;;6.03;4.47;;;;;;;;;;5093181;28;20028;-72
2022/07/22 04:14:25;;;;;;;9.13;4.60;;;;;;;;;;5093036;28;20137;-72
2022/07/22 04:16:51;;;;;;;9.32;4.15;;;;;;;;;;5092997;28;20023;-72
2022/07/22 04:19:17;;;;;;;6.22;4.72;;;;;;;;;;5092917;28;20067;-71
2022/07/22 04:21:43;;;;;;;5.78;4.50;;;;;;;;;;5092974;28;20073;-72
2022/07/22 04:24:10;;;;;;;5.47;4.20;;;;;;;;;;5093239;28;20031;-71
2022/07/22 04:26:36;;;;;;;7.97;6.25;;;;;;;;;;5092888;28;20390;-72
2022/07/22 04:29:03;;;;;;;6.88;5.25;;;;;;;;;;5092583;28;20055;-72
2022/07/22 04:31:29;;;;;;;9.40;5.60;;;;;;;;;;5092960;28;20031;-73
2022/07/22 04:33:55;;;;;;;7.93;5.30;;;;;;;;;;5092901;28;20028;-72
2022/07/22 04:36:21;;;;;;;8.50;5.32;;;;;;;;;;5091528;28;20474;-72
2022/07/22 04:38:48;;;;;;;8.25;5.05;;;;;;;;;;5091271;28;20036;-72
2022/07/22 04:41:14;;;;;;;6.57;4.80;;;;;;;;;;5092892;28;20020;-73
2022/07/22 04:43:40;;;;;;;7.65;5.25;;;;;;;;;;5092606;28;20032;-72
2022/07/22 04:46:06;;;;;;;10.23;5.15;;;;;;;;;;5092807;28;20027;-73
2022/07/22 04:48:32;;;;;;;8.68;4.82;;;;;;;;;;5092832;28;20107;-72
2022/07/22 04:51:02;;;;;;;9.18;4.72;;;;;;;;;;5092500;28;20028;-73
2022/07/22 04:53:28;;;;;;;7.88;4.80;;;;;;;;;;5092561;28;20028;-73
2022/07/22 04:55:54;;;;;;;6.10;4.32;;;;;;;;;;5092679;28;20424;-73
2022/07/22 04:58:21;;;;;;;9.02;5.00;;;;;;;;;;5092676;28;20032;-72
2022/07/22 05:00:47;;;;;;;10.13;4.60;;;;;;;;;;5092452;28;20024;-72
2022/07/22 05:03:13;;;;;;;7.68;5.30;;;;;;;;;;5091463;28;20032;-72
2022/07/22 05:05:39;;;;;;;14.48;5.35;;;;;;;;;;5094700;28;20023;-72
2022/07/22 05:08:06;;;;;;;8.05;5.15;;;;;;;;;;5096126;28;20081;-72
2022/07/22 05:10:32;;;;;;;11.80;4.78;;;;;;;;;;5096087;28;20017;-73
2022/07/22 05:12:58;;;;;;;8.48;5.18;;;;;;;;;;5096180;28;20528;-72
2022/07/22 05:15:24;;;;;;;7.07;5.47;;;;;;;;;;5096067;28;20070;-72
2022/07/22 05:17:51;;;;;;;10.18;5.82;;;;;;;;;;5096003;28;20434;-72
2022/07/22 05:20:17;;;;;;;8.05;5.72;;;;;;;;;;5096082;28;20112;-73
2022/07/22 05:22:43;;;;;;;7.53;5.55;;;;;;;;;;5096081;28;20016;-72
2022/07/22 05:25:09;;;;;;;11.82;5.68;;;;;;;;;;5095876;28;20024;-72
2022/07/22 05:27:35;;;;;;;7.65;5.43;;;;;;;;;;5095709;28;20035;-73
2022/07/22 05:30:01;;;;;;;10.73;5.72;;;;;;;;;;5081386;28;20044;-73
2022/07/22 05:32:27;;;;;;;10.40;5.70;;;;;;;;;;5095871;28;20023;-72
2022/07/22 05:34:54;;;;;;;9.85;7.63;;;;;;;;;;5095635;28;20024;-72
2022/07/22 05:37:20;;;;;;;12.15;6.75;;;;;;;;;;5094553;28;20072;-72
2022/07/22 05:39:46;;;;;;;9.00;6.40;;;;;;;;;;5095635;28;20085;-73
2022/07/22 05:42:12;;;;;;;11.13;6.70;;;;;;;;;;5095581;28;20518;-72
2022/07/22 05:44:38;;;;;;;9.38;5.00;;;;;;;;;;5095627;28;20032;-73
2022/07/22 05:47:04;;;;;;;6.07;4.70;;;;;;;;;;5095462;28;20095;-72
2022/07/22 05:49:31;;;;;;;8.38;5.25;;;;;;;;;;5094055;28;20024;-72
2022/07/22 05:52:00;;;;;;;5.43;4.93;;;;;;;;;;5077237;28;20047;-72
2022/07/22 05:54:27;;;;;;;7.88;5.63;;;;;;;;;;5095861;28;20014;-72
2022/07/22 05:56:53;;;;;;;12.70;6.00;;;;;;;;;;5095311;28;20024;-73
2022/07/22 05:59:19;;;;;;;8.25;5.82;;;;;;;;;;5095413;28;20123;-73
2022/07/22 06:01:45;;;;;;;8.60;5.35;;;;;;;;;;5095419;28;20059;-73
2022/07/22 06:04:12;;;;;;;9.52;5.38;;;;;;;;;;5093571;28;20482;-72
2022/07/22 06:06:38;;;;;;;11.38;5.03;;;;;;;;;;5095189;28;20028;-72
2022/07/22 06:09:04;;;;;;;8.43;5.07;;;;;;;;;;5094902;28;20016;-73
2022/07/22 06:11:30;;;;;;;6.72;4.80;;;;;;;;;;5095011;28;20020;-72
2022/07/22 06:13:56;;;;;;;9.57;5.25;;;;;;;;;;5093713;28;20020;-73
2022/07/22 06:16:22;;;;;;;11.02;5.88;;;;;;;;;;5094821;28;20090;-72
2022/07/22 06:18:48;;;;;;;7.57;5.43;;;;;;;;;;5094760;28;20039;-71
2022/07/22 06:21:14;;;;;;;8.63;5.88;;;;;;;;;;5093380;28;20475;-72
2022/07/22 06:23:40;;;;;;;13.25;5.43;;;;;;;;;;5093442;28;20062;-71
2022/07/22 06:26:07;;;;;;;7.60;4.88;;;;;;;;;;5094747;28;20023;-72
2022/07/22 06:28:33;;;;;;;6.85;4.72;;;;;;;;;;5093144;28;20048;-71
2022/07/22 06:30:59;;;;;;;9.65;5.07;;;;;;;;;;5094972;28;20032;-71
2022/07/22 06:33:25;;;;;;;9.50;5.38;;;;;;;;;;5094533;28;20016;-72
2022/07/22 06:35:51;;;;;;;8.80;5.32;;;;;;;;;;5094469;28;20028;-72
2022/07/22 06:38:17;;;;;;;7.93;4.90;;;;;;;;;;5094378;28;20032;-73
2022/07/22 06:40:43;;;;;;;11.13;5.97;;;;;;;;;;5094724;28;20050;-72
2022/07/22 06:43:09;;;;;;;10.10;5.82;;;;;;;;;;5094412;28;20034;-73
2022/07/22 06:45:36;;;;;;;8.50;4.55;;;;;;;;;;5094386;28;20024;-72
2022/07/22 06:48:02;;;;;;;11.20;7.57;;;;;;;;;;5094488;28;20459;-73
2022/07/22 06:50:28;;;;;;;10.77;5.47;;;;;;;;;;5094073;28;20024;-73
2022/07/22 06:52:54;;;;;;;8.27;7.22;;;;;;;;;;5094201;28;20077;-73
2022/07/22 06:55:20;;;;;;;11.15;5.30;;;;;;;;;;5093855;28;20482;-73
2022/07/22 06:57:46;;;;;;;10.38;4.93;;;;;;;;;;5094195;28;20412;-73
2022/07/22 07:00:13;;;;;;;8.52;5.85;;;;;;;;;;5093923;28;20084;-73
2022/07/22 07:02:39;;;;;;;12.48;5.43;;;;;;;;;;5094166;28;20173;-72
2022/07/22 07:05:05;;;;;;;12.30;5.88;;;;;;;;;;5094036;28;20092;-73
2022/07/22 07:07:31;;;;;;;8.35;5.45;;;;;;;;;;5093906;28;20016;-72
2022/07/22 07:09:57;;;;;;;11.35;5.68;;;;;;;;;;5093856;28;20109;-72
2022/07/22 07:12:24;;;;;;;7.85;5.82;;;;;;;;;;5093785;28;20373;-72
2022/07/22 07:14:50;;;;;;;8.43;6.60;;;;;;;;;;5094115;28;20024;-72
2022/07/22 07:17:16;;;;;;;15.48;6.70;;;;;;;;;;5093602;28;20032;-72
2022/07/22 07:19:42;;;;;;;8.68;6.20;;;;;;;;;;5093627;28;20032;-71
2022/07/22 07:22:08;;;;;;;9.80;5.97;;;;;;;;;;5093636;28;20031;-72
2022/07/22 07:24:34;;;;;;;10.40;6.80;;;;;;;;;;5093433;28;20444;-73
2022/07/22 07:27:00;;;;;;;13.15;8.65;;;;;;;;;;5091912;28;20032;-72
2022/07/22 07:29:26;;;;;;;11.10;7.18;;;;;;;;;;5092977;28;20582;-74
2022/07/22 07:31:53;;;;;;;14.90;8.18;;;;;;;;;;5093413;28;20028;-73
2022/07/22 07:34:19;;;;;;;9.23;7.10;;;;;;;;;;5093359;28;20425;-73
2022/07/22 07:36:45;;;;;;;12.35;5.97;;;;;;;;;;5093332;28;20024;-74
2022/07/22 07:39:11;;;;;;;7.05;5.88;;;;;;;;;;5093386;28;20372;-72
2022/07/22 07:41:37;;;;;;;8.40;5.28;;;;;;;;;;5091826;28;20024;-74
2022/07/22 07:44:03;;;;;;;10.95;6.40;;;;;;;;;;5093358;28;20028;-74
2022/07/22 07:46:29;;;;;;;8.52;6.80;;;;;;;;;;5093623;28;20028;-73
2022/07/22 07:48:55;;;;;;;13.02;6.40;;;;;;;;;;5093047;28;20484;-73
2022/07/22 07:51:22;;;;;;;10.75;6.00;;;;;;;;;;5091722;28;20043;-73
2022/07/22 07:53:48;;;;;;;12.00;7.68;;;;;;;;;;5093126;28;20044;-73
2022/07/22 07:56:14;;;;;;;10.93;7.35;;;;;;;;;;5092950;28;20028;-73
2022/07/22 07:58:40;;;;;;;10.23;6.00;;;;;;;;;;5093134;28;20490;-73
2022/07/22 08:01:06;;;;;;;8.68;6.38;;;;;;;;;;5093016;28;20027;-73
2022/07/22 08:03:32;;;;;;;10.75;6.32;;;;;;;;;;5093268;28;20043;-73
2022/07/22 08:05:59;;;;;;;14.98;9.52;;;;;;;;;;5092774;28;20024;-72
2022/07/22 08:08:26;;;;;;;9.70;6.25;;;;;;;;;;5093111;28;20028;-74
2022/07/22 08:10:52;;;;;;;24.58;8.23;;;;;;;;;;5092953;28;20044;-72
2022/07/22 08:13:18;;;;;;;16.75;7.32;;;;;;;;;;5092855;28;20028;-74
2022/07/22 08:15:45;;;;;;;9.63;5.13;;;;;;;;;;5092782;28;20024;-74
2022/07/22 08:18:11;;;;;;;14.45;9.85;;;;;;;;;;5092737;28;20116;-74
2022/07/22 08:20:37;;;;;;;8.30;6.25;;;;;;;;;;5092598;28;20027;-73
2022/07/22 08:23:04;;;;;;;13.13;6.47;;;;;;;;;;5092652;28;20069;-74
2022/07/22 08:25:30;;;;;;;11.55;6.40;;;;;;;;;;5092729;28;20059;-74
2022/07/22 08:27:56;;;;;;;8.20;4.50;;;;;;;;;;5092486;28;20398;-72
2022/07/22 08:30:23;;;;;;;10.35;5.85;;;;;;;;;;5092845;28;20124;-73
2022/07/22 08:32:49;;;;;;;9.25;6.63;;;;;;;;;;5092950;28;20104;-73
2022/07/22 08:35:16;;;;;;;9.52;6.20;;;;;;;;;;5092531;28;20078;-73
2022/07/22 08:37:42;;;;;;;9.27;5.95;;;;;;;;;;5092604;28;20031;-74
2022/07/22 08:40:08;;;;;;;11.68;6.32;;;;;;;;;;5092836;28;20056;-73
2022/07/22 08:42:39;;;;;;;12.15;6.38;;;;;;;;;;5095558;28;20114;-73
2022/07/22 08:45:05;;;;;;;7.85;6.43;;;;;;;;;;5095413;28;20508;-73
2022/07/22 08:47:32;;;;;;;11.70;6.70;;;;;;;;;;5096672;28;20016;-72
2022/07/22 08:49:58;;;;;;;9.02;6.95;;;;;;;;;;5096868;28;20020;-74
2022/07/22 08:52:24;;;;;;;16.30;5.38;;;;;;;;;;5096508;28;20458;-74
2022/07/22 08:54:50;;;;;;;15.13;6.00;;;;;;;;;;5095234;28;20028;-74
2022/07/22 08:57:17;;;;;;;8.68;6.13;;;;;;;;;;5096258;28;20031;-72
2022/07/22 08:59:51;;;;;;;11.27;6.05;;;;;;;;;;5096298;28;20526;-74
2022/07/22 09:02:17;;;;;;;10.70;6.03;;;;;;;;;;5096734;28;20013;-74
2022/07/22 09:04:53;;;;;;;10.23;5.45;;;;;;;;;;5096261;28;20474;-73
2022/07/22 09:07:29;;;;;;;9.30;5.88;;;;;;;;;;5096296;28;20031;-72
2022/07/22 09:09:55;;;;;;;12.07;5.47;;;;;;;;;;5096211;28;20055;-73
2022/07/22 09:12:22;;;;;;;9.30;5.30;;;;;;;;;;5096044;28;20024;-74
2022/07/22 09:14:52;;;;;;;9.73;6.05;;;;;;;;;;5095108;28;20020;-74
2022/07/22 09:17:28;;;;;;;8.33;5.23;;;;;;;;;;5095871;28;20040;-72
2022/07/22 09:19:54;;;;;;;9.52;5.28;;;;;;;;;;5095924;28;20543;-73
2022/07/22 09:22:34;;;;;;;14.45;5.10;;;;;;;;;;5095746;28;20028;-73
2022/07/22 09:25:17;;;;;;;8.35;5.55;;;;;;;;;;5096104;28;20024;-72
2022/07/22 09:27:43;;;;;;;10.38;5.18;;;;;;;;;;5095535;28;20024;-71
2022/07/22 09:30:18;;;;;;;10.25;5.65;;;;;;;;;;5095569;28;20119;-72
2022/07/22 09:32:44;;;;;;;6.72;4.93;;;;;;;;;;5095652;28;20149;-73
2022/07/22 09:35:11;;;;;;;10.35;5.35;;;;;;;;;;5095615;28;20511;-72
2022/07/22 09:37:38;;;;;;;10.40;4.75;;;;;;;;;;5094395;28;20466;-73
2022/07/22 09:40:14;;;;;;;8.00;4.93;;;;;;;;;;5095439;28;20024;-72
2022/07/22 09:42:54;;;;;;;8.88;5.35;;;;;;;;;;5095608;28;20024;-73
2022/07/22 09:45:21;;;;;;;8.00;5.35;;;;;;;;;;5095296;28;20030;-73
2022/07/22 09:47:48;;;;;;;7.78;5.43;;;;;;;;;;5095825;28;20024;-72
2022/07/22 09:50:24;;;;;;;9.23;5.72;;;;;;;;;;5094592;28;20024;-72
2022/07/22 09:52:52;;;;;;;8.25;5.65;;;;;;;;;;5095391;28;20031;-72
2022/07/22 09:55:19;;;;;;;8.98;5.53;;;;;;;;;;5095051;28;20107;-72
2022/07/22 09:57:45;;;;;;;12.68;6.38;;;;;;;;;;5095074;28;20030;-73
2022/07/22 10:00:16;;;;;;;6.82;5.40;;;;;;;;;;5094795;28;20032;-73
2022/07/22 10:02:51;;;;;;;11.68;6.13;;;;;;;;;;5095158;28;20063;-73
2022/07/22 10:05:20;;;;;;;9.57;5.55;;;;;;;;;;5094886;28;20058;-72
2022/07/22 10:07:46;;;;;;;7.95;5.47;;;;;;;;;;5095028;28;20070;-73
2022/07/22 10:10:14;;;;;;;15.27;5.55;;;;;;;;;;5095043;28;20031;-74
2022/07/22 10:12:41;;;;;;;7.32;5.43;;;;;;;;;;5095151;28;20020;-74
2022/07/22 10:15:07;;;;;;;12.50;5.82;;;;;;;;;;5094899;28;20097;-74
2022/07/22 10:17:35;;;;;;;9.82;5.43;;;;;;;;;;5094848;28;20419;-74
2022/07/22 10:20:01;;;;;;;9.52;5.18;;;;;;;;;;5094853;28;20032;-74
2022/07/22 10:22:39;;;;;;;8.63;5.30;;;;;;;;;;5093536;28;20016;-74
2022/07/22 10:25:06;;;;;;;9.57;5.72;;;;;;;;;;5095237;28;20028;-72
2022/07/22 10:27:49;;;;;;;12.15;5.57;;;;;;;;;;5094825;28;20059;-72
2022/07/22 10:30:16;;;;;;;7.78;5.13;;;;;;;;;;5094439;28;20044;-74
2022/07/22 10:32:43;;;;;;;9.68;5.18;;;;;;;;;;5094725;28;20111;-74
2022/07/22 10:35:12;;;;;;;11.13;5.65;;;;;;;;;;5094356;28;20020;-74
2022/07/22 10:37:43;;;;;;;7.40;5.07;;;;;;;;;;5094550;28;20035;-74
2022/07/22 10:40:17;;;;;;;10.02;4.68;;;;;;;;;;5094285;28;20024;-74
2022/07/22 10:42:58;;;;;;;12.93;5.25;;;;;;;;;;5094435;28;20027;-74
2022/07/22 10:45:25;;;;;;;6.95;4.55;;;;;;;;;;5094500;28;20059;-74
2022/07/22 10:48:01;;;;;;;12.85;6.18;;;;;;;;;;5094310;28;20062;-74
2022/07/22 10:50:42;;;;;;;8.63;5.15;;;;;;;;;;5093939;28;20016;-72
2022/07/22 10:53:12;;;;;;;8.88;5.10;;;;;;;;;;5094068;28;20474;-73
2022/07/22 10:55:40;;;;;;;14.10;4.95;;;;;;;;;;5094066;28;20028;-74
2022/07/22 10:58:24;;;;;;;10.52;5.38;;;;;;;;;;5094108;28;20032;-73
2022/07/22 11:00:50;;;;;;;8.82;4.82;;;;;;;;;;5093953;28;20072;-72
2022/07/22 11:03:26;;;;;;;10.88;5.13;;;;;;;;;;5093021;28;20035;-72
2022/07/22 11:05:52;;;;;;;10.15;5.32;;;;;;;;;;5093791;28;20058;-72
2022/07/22 11:08:19;;;;;;;11.82;5.38;;;;;;;;;;5093961;28;20028;-72
2022/07/22 11:10:49;;;;;;;8.13;5.50;;;;;;;;;;5093543;28;20050;-72
2022/07/22 11:13:31;;;;;;;9.70;5.30;;;;;;;;;;5093758;28;20099;-72
2022/07/22 11:16:13;;;;;;;7.53;5.13;;;;;;;;;;5093806;28;20020;-74
2022/07/22 11:18:53;;;;;;;10.32;4.75;;;;;;;;;;5093861;28;20032;-74
2022/07/22 11:21:20;;;;;;;8.23;5.65;;;;;;;;;;5094008;28;20024;-74
2022/07/22 11:23:48;;;;;;;9.68;5.25;;;;;;;;;;5093692;28;20016;-74
2022/07/22 11:26:15;;;;;;;7.85;5.15;;;;;;;;;;5093322;28;20027;-74
2022/07/22 11:28:42;;;;;;;9.15;5.55;;;;;;;;;;5093304;28;20068;-74
2022/07/22 11:31:09;;;;;;;8.52;5.47;;;;;;;;;;5093560;28;20048;-73
2022/07/22 11:33:35;;;;;;;10.02;4.60;;;;;;;;;;5093382;28;20020;-73
2022/07/22 11:36:04;;;;;;;13.57;5.65;;;;;;;;;;5093349;28;20374;-73
2022/07/22 11:38:43;;;;;;;8.80;5.40;;;;;;;;;;5093127;28;20106;-73
2022/07/22 11:41:10;;;;;;;9.68;5.45;;;;;;;;;;5093234;28;20055;-73
2022/07/22 11:43:40;;;;;;;23.67;6.47;;;;;;;;;;5093207;28;20023;-72
2022/07/22 11:46:06;;;;;;;10.88;6.57;;;;;;;;;;5093267;28;20493;-73
2022/07/22 11:48:32;;;;;;;12.50;5.95;;;;;;;;;;5093044;28;20028;-73
2022/07/22 11:51:02;;;;;;;8.85;5.72;;;;;;;;;;5093598;28;20027;-73
2022/07/22 11:53:28;;;;;;;6.75;4.85;;;;;;;;;;5092882;28;20103;-72
2022/07/22 11:55:58;;;;;;;9.65;5.07;;;;;;;;;;5093159;28;20020;-73
2022/07/22 11:58:34;;;;;;;6.30;5.05;;;;;;;;;;5093012;28;20036;-72
2022/07/22 12:01:00;;;;;;;6.93;4.45;;;;;;;;;;5093286;28;20535;-73
2022/07/22 12:03:27;;;;;;;9.60;4.82;;;;;;;;;;5093073;28;20032;-72
2022/07/22 12:05:54;;;;;;;8.40;4.43;;;;;;;;;;5092708;28;20016;-73
2022/07/22 12:08:20;;;;;;;14.45;5.15;;;;;;;;;;5092859;28;20103;-72
2022/07/22 12:10:46;;;;;;;7.82;5.22;;;;;;;;;;5092989;28;20043;-73
2022/07/22 12:13:13;;;;;;;9.80;5.80;;;;;;;;;;5093029;28;20363;-73
2022/07/22 12:15:39;;;;;;;13.77;7.07;;;;;;;;;;5092827;28;20127;-73
2022/07/22 12:18:19;;;;;;;20.02;7.47;;;;;;;;;;5092693;28;20099;-73
2022/07/22 12:20:46;;;;;;;13.80;7.32;;;;;;;;;;5091330;28;20036;-72
2022/07/22 12:23:12;;;;;;;11.32;5.75;;;;;;;;;;5092896;28;20039;-72
2022/07/22 12:25:58;;;;;;;9.73;5.10;;;;;;;;;;5092835;28;20027;-72
2022/07/22 12:28:25;;;;;;;8.88;5.57;;;;;;;;;;5092371;28;20462;-72
2022/07/22 12:30:52;;;;;;;6.30;5.20;;;;;;;;;;5092672;28;20021;-73
2022/07/22 12:33:19;;;;;;;12.48;5.07;;;;;;;;;;5093079;28;20032;-72
2022/07/22 12:35:58;;;;;;;11.75;5.78;;;;;;;;;;5092418;28;20028;-73
2022/07/22 12:38:24;;;;;;;9.63;5.07;;;;;;;;;;5092407;28;20398;-73
2022/07/22 12:40:50;;;;;;;16.42;7.00;;;;;;;;;;5092658;28;20031;-73
2022/07/22 12:43:17;;;;;;;12.18;6.55;;;;;;;;;;5092619;28;20085;-73
2022/07/22 12:45:43;;;;;;;8.95;7.10;;;;;;;;;;5092665;28;20012;-72
2022/07/22 12:48:11;;;;;;;14.20;7.45;;;;;;;;;;5092280;28;20024;-74
2022/07/22 12:50:39;;;;;;;10.07;5.20;;;;;;;;;;5092393;28;20024;-73
2022/07/22 12:53:09;;;;;;;8.55;5.57;;;;;;;;;;5092621;28;20027;-73
2022/07/22 12:55:36;;;;;;;8.23;5.43;;;;;;;;;;5092487;28;20028;-73
2022/07/22 12:58:04;;;;;;;11.40;6.40;;;;;;;;;;5092606;28;20111;-73
2022/07/22 13:00:31;;;;;;;20.00;7.20;;;;;;;;;;5092155;28;20502;-72
2022/07/22 13:02:57;;;;;;;10.38;5.22;;;;;;;;;;5092677;28;20111;-73
2022/07/22 13:05:24;;;;;;;7.28;4.38;;;;;;;;;;5092332;28;20035;-74
2022/07/22 13:07:50;;;;;;;8.57;5.75;;;;;;;;;;5092477;28;20051;-73
2022/07/22 13:10:16;;;;;;;8.93;5.20;;;;;;;;;;5092541;28;20027;-73
2022/07/22 13:12:43;;;;;;;8.48;4.93;;;;;;;;;;5090983;28;20043;-72
2022/07/22 13:15:09;;;;;;;8.88;5.95;;;;;;;;;;5092549;28;20475;-72
2022/07/22 13:17:36;;;;;;;10.68;5.25;;;;;;;;;;5092123;28;20031;-74
2022/07/22 13:20:02;;;;;;;6.38;4.55;;;;;;;;;;5092323;28;20054;-74
2022/07/22 13:22:28;;;;;;;12.18;5.53;;;;;;;;;;5091990;28;20023;-73
2022/07/22 13:24:55;;;;;;;10.25;5.20;;;;;;;;;;5092435;28;20032;-73
2022/07/22 13:27:21;;;;;;;9.82;6.55;;;;;;;;;;5095260;28;20047;-73
2022/07/22 13:29:47;;;;;;;11.65;5.97;;;;;;;;;;5095555;28;20490;-73
2022/07/22 13:32:13;;;;;;;11.32;6.00;;;;;;;;;;5095743;28;20016;-73
2022/07/22 13:34:39;;;;;;;10.07;5.07;;;;;;;;;;5095936;28;20020;-73
2022/07/22 13:37:05;;;;;;;8.32;5.32;;;;;;;;;;5094230;28;20043;-74
2022/07/22 13:39:31;;;;;;;8.90;5.22;;;;;;;;;;5094396;28;20117;-75
2022/07/22 13:41:57;;;;;;;8.40;5.20;;;;;;;;;;5094529;28;20035;-74
2022/07/22 13:44:23;;;;;;;8.57;5.45;;;;;;;;;;5095606;28;20028;-75
2022/07/22 13:46:49;;;;;;;10.00;5.45;;;;;;;;;;5095328;28;20056;-75
2022/07/22 13:49:15;;;;;;;6.35;4.93;;;;;;;;;;5095417;28;20024;-75
2022/07/22 13:51:41;;;;;;;10.32;5.10;;;;;;;;;;5095833;28;20024;-75
2022/07/22 13:54:07;;;;;;;9.80;5.13;;;;;;;;;;5094247;28;20078;-74
2022/07/22 13:56:34;;;;;;;9.70;5.63;;;;;;;;;;5095297;28;20020;-75
2022/07/22 13:59:00;;;;;;;7.53;4.32;;;;;;;;;;5093779;28;20040;-74
2022/07/22 14:01:27;;;;;;;10.75;4.95;;;;;;;;;;5095857;28;20122;-74
2022/07/22 14:03:53;;;;;;;7.78;4.78;;;;;;;;;;5095384;28;20034;-74
2022/07/22 14:06:19;;;;;;;8.73;4.97;;;;;;;;;;5095146;28;20016;-74
2022/07/22 14:08:45;;;;;;;10.18;4.82;;;;;;;;;;5095052;28;20020;-74
2022/07/22 14:11:11;;;;;;;6.88;4.93;;;;;;;;;;5095132;28;20020;-74
2022/07/22 14:13:37;;;;;;;11.75;5.75;;;;;;;;;;5095392;28;20068;-74
2022/07/22 14:18:48;;;;;;;8.32;5.60;;;;;;;;;;5095336;28;20047;-73
2022/07/22 14:21:14;;;;;;;7.20;4.60;;;;;;;;;;5094724;28;20103;-74
2022/07/22 14:23:40;;;;;;;6.95;4.78;;;;;;;;;;5094831;28;20024;-75
2022/07/22 14:26:06;;;;;;;12.52;5.45;;;;;;;;;;5094821;28;20020;-74
2022/07/22 14:28:33;;;;;;;7.50;5.55;;;;;;;;;;5094384;28;20055;-74
2022/07/22 14:30:59;;;;;;;7.22;4.97;;;;;;;;;;5093294;28;20496;-74
2022/07/22 14:33:25;;;;;;;7.60;4.57;;;;;;;;;;5094589;28;20027;-74
2022/07/22 14:35:51;;;;;;;10.50;4.97;;;;;;;;;;5094571;28;20025;-74
2022/07/22 14:38:18;;;;;;;5.93;4.55;;;;;;;;;;5094360;28;20363;-74
2022/07/22 14:40:44;;;;;;;6.63;5.43;;;;;;;;;;5094539;28;20424;-74
2022/07/22 14:43:11;;;;;;;6.68;4.88;;;;;;;;;;5094499;28;20024;-75
2022/07/22 14:45:37;;;;;;;11.85;4.90;;;;;;;;;;5092164;28;20486;-71
2022/07/22 14:48:03;;;;;;;7.28;4.70;;;;;;;;;;5079129;28;20033;-71
2022/07/22 14:50:29;;;;;;;10.88;5.95;;;;;;;;;;5094011;28;20470;-73
2022/07/22 14:52:55;;;;;;;12.23;5.03;;;;;;;;;;5091308;28;20441;-73
2022/07/22 14:55:21;;;;;;;12.13;4.63;;;;;;;;;;5086748;28;20073;-73
2022/07/22 14:57:47;;;;;;;9.77;5.78;;;;;;;;;;5094152;28;20478;-72
2022/07/22 15:00:13;;;;;;;9.45;4.78;;;;;;;;;;5093967;28;20447;-71
2022/07/22 15:02:39;;;;;;;17.45;4.93;;;;;;;;;;5093957;28;20034;-72
2022/07/22 15:05:05;;;;;;;14.65;5.95;;;;;;;;;;5093419;28;20027;-72
2022/07/22 15:07:32;;;;;;;9.10;4.43;;;;;;;;;;5090296;28;20382;-71
2022/07/22 15:09:58;;;;;;;11.77;4.88;;;;;;;;;;5094110;28;20024;-73